Time;durP1;ratioP1;P1;durP2;ratioP2;P2;SDS_P1;SDS_P2;PMS_P1;PMS_P2;Temp;Humidity;BMP_temperature;BMP_pressure;BME280_temperature;BME280_humidity;BME280_pressure;Samples;Min_cycle;Max_cycle;Signal;HPM_P1;HPM_P2
2021/03/09 00:00:38;;;;;;;45.43;24.23;;;3.80;95.80;;;;;;5109229;28;20470;-60
2021/03/09 00:03:04;;;;;;;46.93;23.67;;;3.70;96.00;;;;;;5109076;28;20460;-60
2021/03/09 00:05:29;;;;;;;48.58;23.90;;;3.70;96.20;;;;;;5109244;28;20058;-60
2021/03/09 00:07:55;;;;;;;40.47;23.13;;;3.80;96.20;;;;;;5108941;28;20123;-61
2021/03/09 00:10:21;;;;;;;48.33;25.13;;;3.70;96.20;;;;;;5109212;28;20083;-61
2021/03/09 00:12:46;;;;;;;47.37;23.97;;;3.70;96.20;;;;;;5109363;28;20064;-61
2021/03/09 00:15:12;;;;;;;43.60;23.10;;;3.70;96.10;;;;;;5108896;28;20211;-60
2021/03/09 00:17:38;;;;;;;45.20;23.33;;;3.70;96.10;;;;;;5109090;28;20047;-60
2021/03/09 00:20:04;;;;;;;44.13;23.57;;;3.70;96.40;;;;;;5109221;28;20297;-61
2021/03/09 00:22:30;;;;;;;44.83;23.08;;;3.70;96.30;;;;;;5108605;28;20064;-61
2021/03/09 00:24:56;;;;;;;50.10;24.97;;;3.70;96.30;;;;;;5109230;28;20055;-60
2021/03/09 00:27:22;;;;;;;46.03;23.90;;;3.70;96.50;;;;;;5109196;28;20040;-60
2021/03/09 00:29:47;;;;;;;40.23;22.33;;;3.70;96.60;;;;;;5109090;28;20063;-59
2021/03/09 00:32:13;;;;;;;41.17;23.43;;;3.70;96.50;;;;;;5108554;28;20044;-59
2021/03/09 00:34:39;;;;;;;43.17;23.20;;;3.70;96.50;;;;;;5108931;28;20405;-62
2021/03/09 00:37:06;;;;;;;43.22;23.58;;;3.70;96.50;;;;;;5108888;28;20054;-59
2021/03/09 00:39:32;;;;;;;42.83;22.85;;;3.70;96.50;;;;;;5108741;28;20131;-59
2021/03/09 00:41:57;;;;;;;44.28;23.13;;;3.70;96.50;;;;;;5108975;28;20043;-60
2021/03/09 00:44:23;;;;;;;42.53;22.10;;;3.60;96.50;;;;;;5108771;28;20673;-59
2021/03/09 00:46:49;;;;;;;43.07;21.80;;;3.60;96.70;;;;;;5108611;28;20044;-60
2021/03/09 00:49:15;;;;;;;40.67;22.13;;;3.60;96.90;;;;;;5108655;28;20101;-61
2021/03/09 00:51:41;;;;;;;41.42;21.83;;;3.60;96.80;;;;;;5108958;28;20406;-59
2021/03/09 00:54:07;;;;;;;38.60;22.03;;;3.60;96.80;;;;;;5108753;28;20047;-60
2021/03/09 00:56:33;;;;;;;44.37;22.63;;;3.60;96.70;;;;;;5108619;28;20525;-61
2021/03/09 00:58:58;;;;;;;38.37;21.20;;;3.50;97.00;;;;;;5109137;28;20540;-59
2021/03/09 01:01:24;;;;;;;38.17;21.40;;;3.50;96.90;;;;;;5112652;28;20753;-60
2021/03/09 01:03:50;;;;;;;43.73;22.20;;;3.50;96.80;;;;;;5111706;28;20481;-64
2021/03/09 01:06:15;;;;;;;42.50;21.40;;;3.50;96.90;;;;;;5111864;28;20135;-62
2021/03/09 01:08:41;;;;;;;45.17;21.93;;;3.60;96.90;;;;;;5111838;28;20450;-61
2021/03/09 01:11:07;;;;;;;43.03;22.07;;;3.50;96.90;;;;;;5110623;28;20126;-63
2021/03/09 01:13:32;;;;;;;41.43;21.90;;;3.50;97.00;;;;;;5108994;28;20052;-60
2021/03/09 01:15:58;;;;;;;42.47;21.93;;;3.50;97.00;;;;;;5108625;28;20051;-60
2021/03/09 01:18:24;;;;;;;41.50;21.93;;;3.50;97.00;;;;;;5108564;28;20052;-60
2021/03/09 01:20:49;;;;;;;39.33;21.17;;;3.50;97.00;;;;;;5108464;28;20108;-60
2021/03/09 01:23:15;;;;;;;42.30;22.00;;;3.50;96.90;;;;;;5111479;28;20523;-60
2021/03/09 01:25:41;;;;;;;46.23;23.87;;;3.50;97.00;;;;;;5112432;28;20366;-60
2021/03/09 01:28:08;;;;;;;39.30;21.98;;;3.50;97.20;;;;;;5112469;28;20127;-60
2021/03/09 01:30:33;;;;;;;43.70;23.58;;;3.50;97.10;;;;;;5112316;28;20043;-61
2021/03/09 01:32:59;;;;;;;47.70;23.70;;;3.50;97.20;;;;;;5112302;28;20386;-62
2021/03/09 01:35:26;;;;;;;42.63;22.08;;;3.50;97.60;;;;;;5111749;28;20044;-62
2021/03/09 01:37:52;;;;;;;48.38;23.33;;;3.50;97.50;;;;;;5112130;28;20105;-61
2021/03/09 01:40:19;;;;;;;44.77;22.97;;;3.50;97.60;;;;;;5110638;28;20446;-61
2021/03/09 01:42:45;;;;;;;43.28;23.13;;;3.50;97.80;;;;;;5112025;28;20089;-62
2021/03/09 01:45:11;;;;;;;44.70;22.43;;;3.50;97.70;;;;;;5111458;28;20067;-61
2021/03/09 01:47:45;;;;;;;45.00;22.33;;;3.40;97.90;;;;;;5111590;28;20097;-62
2021/03/09 01:50:14;;;;;;;44.90;22.65;;;3.50;97.90;;;;;;5111855;28;20055;-62
2021/03/09 01:52:42;;;;;;;42.33;21.67;;;3.50;97.90;;;;;;5111950;28;20071;-61
2021/03/09 01:55:11;;;;;;;44.35;22.77;;;3.50;97.80;;;;;;5111616;28;20495;-61
2021/03/09 01:57:38;;;;;;;47.55;24.10;;;3.40;97.90;;;;;;5111369;28;20044;-60
2021/03/09 02:00:05;;;;;;;43.88;22.08;;;3.50;97.90;;;;;;5111541;28;20044;-61
2021/03/09 02:02:32;;;;;;;51.70;24.50;;;3.50;97.90;;;;;;5111731;28;20384;-61
2021/03/09 02:04:58;;;;;;;50.33;24.27;;;3.50;98.00;;;;;;5111448;28;20051;-61
2021/03/09 02:07:24;;;;;;;45.10;23.33;;;3.50;97.90;;;;;;5111460;28;20039;-61
2021/03/09 02:09:50;;;;;;;50.20;25.47;;;3.50;97.90;;;;;;5111574;28;20043;-61
2021/03/09 02:12:45;;;;;;;47.87;25.03;;;3.50;98.20;;;;;;5111483;28;20040;-61
2021/03/09 02:15:32;;;;;;;42.85;23.00;;;3.50;98.20;;;;;;5111607;28;20678;-60
2021/03/09 02:18:07;;;;;;;44.17;23.52;;;3.50;98.00;;;;;;5111384;28;20065;-61
2021/03/09 02:20:36;;;;;;;48.25;24.17;;;3.50;98.10;;;;;;5111521;28;20039;-61
2021/03/09 02:23:22;;;;;;;50.10;24.67;;;3.50;98.10;;;;;;5110850;28;20056;-62
2021/03/09 02:26:30;;;;;;;51.63;24.23;;;3.60;98.20;;;;;;5111264;28;20474;-61
2021/03/09 02:29:36;;;;;;;50.28;25.33;;;3.60;98.20;;;;;;5111342;27;20055;-60
2021/03/09 02:32:04;;;;;;;50.97;25.80;;;3.60;98.10;;;;;;5088261;28;20415;-61
2021/03/09 02:34:34;;;;;;;46.40;24.73;;;3.60;98.70;;;;;;5087129;28;20072;-61
2021/03/09 02:37:09;;;;;;;53.15;25.20;;;3.60;98.70;;;;;;5099919;28;20142;-60
2021/03/09 02:39:37;;;;;;;56.58;27.98;;;3.60;98.50;;;;;;5111019;28;20051;-60
2021/03/09 02:42:04;;;;;;;50.05;25.90;;;3.60;98.30;;;;;;5110492;28;20039;-60
2021/03/09 02:44:31;;;;;;;49.95;25.73;;;3.60;98.40;;;;;;5110740;28;20117;-61
2021/03/09 02:46:58;;;;;;;51.53;25.63;;;3.60;98.40;;;;;;5110581;28;20075;-62
2021/03/09 02:49:27;;;;;;;52.10;26.45;;;3.60;98.30;;;;;;5110549;28;20055;-61
2021/03/09 02:51:53;;;;;;;50.83;26.25;;;3.60;98.20;;;;;;5110808;28;20088;-60
2021/03/09 02:54:21;;;;;;;49.83;25.70;;;3.60;98.30;;;;;;5109096;28;20066;-61
2021/03/09 02:56:47;;;;;;;60.85;27.50;;;3.60;98.20;;;;;;5110309;28;20051;-61
2021/03/09 02:59:16;;;;;;;53.35;26.48;;;3.60;98.30;;;;;;5110470;28;20047;-61
2021/03/09 03:01:44;;;;;;;53.28;26.33;;;3.60;98.50;;;;;;5110545;28;20047;-60
2021/03/09 03:04:13;;;;;;;49.78;25.25;;;3.60;98.50;;;;;;5110238;28;20048;-61
2021/03/09 03:06:40;;;;;;;51.10;26.60;;;3.60;98.50;;;;;;5108992;28;20051;-62
2021/03/09 03:09:06;;;;;;;56.92;26.77;;;3.60;98.30;;;;;;5110605;28;20059;-60
2021/03/09 03:11:33;;;;;;;55.58;27.80;;;3.60;98.30;;;;;;5110247;28;20051;-61
2021/03/09 03:14:06;;;;;;;51.50;25.95;;;3.60;98.30;;;;;;5110197;28;20065;-61
2021/03/09 03:16:33;;;;;;;54.05;26.88;;;3.60;98.30;;;;;;5110172;28;20051;-62
2021/03/09 03:19:02;;;;;;;53.80;26.23;;;3.60;98.50;;;;;;5110064;28;20467;-61
2021/03/09 03:21:29;;;;;;;53.63;26.38;;;3.60;98.50;;;;;;5109455;28;20075;-61
2021/03/09 03:23:59;;;;;;;52.08;26.25;;;3.60;98.30;;;;;;5110370;28;20047;-60
2021/03/09 03:26:27;;;;;;;52.55;26.50;;;3.60;98.30;;;;;;5109735;28;20644;-60
2021/03/09 03:28:55;;;;;;;57.60;27.83;;;3.60;98.40;;;;;;5110092;28;20428;-60
2021/03/09 03:31:20;;;;;;;54.90;27.02;;;3.60;98.40;;;;;;5109848;28;20054;-61
2021/03/09 03:33:48;;;;;;;55.07;27.23;;;3.60;98.40;;;;;;5109591;28;20055;-61
2021/03/09 03:36:14;;;;;;;54.67;26.42;;;3.60;98.60;;;;;;5109839;28;20040;-61
2021/03/09 03:38:42;;;;;;;59.33;27.48;;;3.60;98.40;;;;;;5110027;28;20139;-60
2021/03/09 03:41:09;;;;;;;56.05;28.40;;;3.60;98.50;;;;;;5109856;28;20124;-61
2021/03/09 03:43:35;;;;;;;58.70;27.90;;;3.60;98.40;;;;;;5109961;28;20138;-62
2021/03/09 03:46:01;;;;;;;56.38;27.35;;;3.60;98.40;;;;;;5109377;28;20059;-60
2021/03/09 03:48:30;;;;;;;59.85;27.60;;;3.60;98.60;;;;;;5109373;28;20047;-61
2021/03/09 03:50:56;;;;;;;59.05;28.92;;;3.70;98.50;;;;;;5109638;28;20071;-60
2021/03/09 03:53:25;;;;;;;60.83;28.80;;;3.70;98.50;;;;;;5109726;28;20478;-61
2021/03/09 03:56:05;;;;;;;62.80;29.63;;;3.70;98.40;;;;;;5109518;28;20070;-61
2021/03/09 03:58:48;;;;;;;61.05;29.75;;;3.70;98.40;;;;;;5109666;28;20071;-59
2021/03/09 04:01:15;;;;;;;61.58;28.55;;;3.70;98.50;;;;;;5109425;28;20050;-63
2021/03/09 04:03:42;;;;;;;61.45;28.83;;;3.70;98.40;;;;;;5109457;28;20043;-61
2021/03/09 04:06:09;;;;;;;68.15;29.98;;;3.70;98.40;;;;;;5141957;27;20059;-61
2021/03/09 04:08:37;;;;;;;68.28;30.35;;;3.70;98.70;;;;;;5109181;28;20472;-62
2021/03/09 04:11:04;;;;;;;60.33;29.92;;;3.70;98.60;;;;;;5109418;28;20050;-62
2021/03/09 04:13:36;;;;;;;59.92;28.52;;;3.70;98.70;;;;;;5109366;28;20116;-61
2021/03/09 04:16:03;;;;;;;68.78;30.23;;;3.70;98.60;;;;;;5109226;28;20040;-60
2021/03/09 04:18:30;;;;;;;70.13;30.42;;;3.70;98.50;;;;;;5109744;28;20050;-61
2021/03/09 04:20:57;;;;;;;65.78;30.48;;;3.80;98.50;;;;;;5108997;28;20102;-61
2021/03/09 04:23:24;;;;;;;66.95;31.83;;;3.80;98.70;;;;;;5108534;28;20067;-59
2021/03/09 04:25:52;;;;;;;64.15;29.60;;;3.80;98.70;;;;;;5109135;28;20051;-62
2021/03/09 04:28:18;;;;;;;73.55;33.47;;;3.80;98.70;;;;;;5109150;28;20063;-59
2021/03/09 04:30:44;;;;;;;66.30;29.85;;;3.80;98.80;;;;;;5109385;28;20051;-60
2021/03/09 04:33:10;;;;;;;67.20;30.48;;;3.80;98.90;;;;;;5109067;28;20143;-61
2021/03/09 04:35:37;;;;;;;70.68;32.13;;;3.80;98.70;;;;;;5109237;28;20056;-60
2021/03/09 04:38:03;;;;;;;69.70;31.23;;;3.80;98.60;;;;;;5109116;28;20043;-60
2021/03/09 04:40:32;;;;;;;86.57;33.60;;;3.80;98.60;;;;;;5108673;28;20047;-60
2021/03/09 04:42:58;;;;;;;76.47;32.88;;;3.80;98.60;;;;;;5109138;28;20044;-61
2021/03/09 04:45:24;;;;;;;76.13;32.23;;;3.80;98.70;;;;;;5109089;28;20485;-62
2021/03/09 04:47:50;;;;;;;94.30;35.53;;;3.80;98.70;;;;;;5108645;28;20055;-60
2021/03/09 04:50:16;;;;;;;96.50;36.70;;;3.80;98.70;;;;;;5108767;28;20147;-61
2021/03/09 04:52:46;;;;;;;85.00;35.08;;;3.90;99.00;;;;;;5108657;28;20466;-61
2021/03/09 04:55:17;;;;;;;95.60;35.33;;;3.90;99.00;;;;;;5108585;28;20465;-61
2021/03/09 04:57:43;;;;;;;82.78;34.10;;;3.90;99.00;;;;;;5111622;28;20047;-60
2021/03/09 05:00:12;;;;;;;111.63;38.40;;;4.00;98.90;;;;;;5112763;28;20047;-60
2021/03/09 05:02:38;;;;;;;99.15;37.80;;;3.90;99.00;;;;;;5112530;28;20122;-60
2021/03/09 05:05:04;;;;;;;98.47;37.33;;;3.90;98.80;;;;;;5112416;28;20126;-60
2021/03/09 05:07:30;;;;;;;96.05;36.95;;;4.00;98.80;;;;;;5112771;28;20052;-60
2021/03/09 05:09:55;;;;;;;99.47;37.87;;;4.00;99.00;;;;;;5112510;28;20079;-60
2021/03/09 05:12:21;;;;;;;96.27;37.23;;;4.00;99.00;;;;;;5112478;27;20100;-60
2021/03/09 05:14:47;;;;;;;101.70;39.67;;;4.00;99.00;;;;;;5112557;28;20445;-61
2021/03/09 05:17:13;;;;;;;90.37;36.77;;;4.00;99.00;;;;;;5112429;28;20044;-60
2021/03/09 05:19:39;;;;;;;105.07;40.73;;;4.00;99.00;;;;;;5112083;28;20055;-61
2021/03/09 05:22:05;;;;;;;137.93;43.87;;;4.00;99.00;;;;;;5110660;28;20096;-61
2021/03/09 05:24:31;;;;;;;112.80;40.70;;;4.00;99.00;;;;;;5112179;28;20498;-60
2021/03/09 05:26:56;;;;;;;106.50;39.50;;;4.10;99.10;;;;;;5111971;28;20099;-60
2021/03/09 05:29:22;;;;;;;110.77;40.67;;;4.10;99.20;;;;;;5112190;28;20320;-61
2021/03/09 05:31:48;;;;;;;91.83;37.50;;;4.10;99.20;;;;;;5112212;28;20043;-60
2021/03/09 05:34:14;;;;;;;112.90;40.53;;;4.10;99.30;;;;;;5111855;28;20116;-61
2021/03/09 05:36:39;;;;;;;113.37;42.77;;;4.10;99.30;;;;;;5112021;28;20089;-60
2021/03/09 05:39:05;;;;;;;104.33;41.50;;;4.10;99.50;;;;;;5111997;28;20066;-60
2021/03/09 05:41:33;;;;;;;115.68;40.85;;;4.10;99.30;;;;;;5111856;28;20104;-60
2021/03/09 05:44:01;;;;;;;116.65;42.78;;;4.20;99.60;;;;;;5111779;28;20044;-62
2021/03/09 05:46:28;;;;;;;112.97;42.22;;;4.20;99.30;;;;;;5111782;28;20063;-60
2021/03/09 05:48:54;;;;;;;110.43;41.13;;;4.20;99.30;;;;;;5111657;28;20052;-61
2021/03/09 05:51:20;;;;;;;105.40;41.30;;;4.20;99.20;;;;;;5111439;28;20055;-62
2021/03/09 05:53:46;;;;;;;100.13;40.55;;;4.20;99.20;;;;;;5111591;28;20052;-62
2021/03/09 05:56:11;;;;;;;126.53;42.53;;;4.20;99.30;;;;;;5111621;28;20462;-61
2021/03/09 05:58:37;;;;;;;113.60;43.03;;;4.20;99.30;;;;;;5111263;28;20409;-61
2021/03/09 06:01:03;;;;;;;115.17;41.60;;;4.30;99.30;;;;;;5111753;28;20063;-60
2021/03/09 06:03:29;;;;;;;99.55;40.17;;;4.30;99.20;;;;;;5111579;28;20159;-60
2021/03/09 06:05:55;;;;;;;111.23;40.03;;;4.30;99.10;;;;;;5111001;28;20127;-60
2021/03/09 06:08:20;;;;;;;108.63;41.38;;;4.30;99.30;;;;;;5111279;28;20458;-62
2021/03/09 06:10:49;;;;;;;111.67;39.30;;;4.30;99.30;;;;;;5111663;28;20047;-60
2021/03/09 06:13:34;;;;;;;102.38;39.83;;;4.30;99.30;;;;;;5110500;28;20134;-60
2021/03/09 06:16:00;;;;;;;117.95;42.45;;;4.30;99.30;;;;;;5110556;28;20055;-61
2021/03/09 06:18:26;;;;;;;108.90;41.78;;;4.30;99.30;;;;;;5110444;28;20067;-61
2021/03/09 06:21:12;;;;;;;111.13;41.50;;;4.30;99.30;;;;;;5110232;28;20427;-62
2021/03/09 06:23:39;;;;;;;135.73;43.97;;;4.40;99.30;;;;;;5110252;28;20126;-61
2021/03/09 06:26:35;;;;;;;112.68;42.95;;;4.40;99.30;;;;;;5109735;28;20397;-63
2021/03/09 06:29:14;;;;;;;122.28;44.67;;;4.40;99.40;;;;;;5110134;28;20051;-62
2021/03/09 06:31:59;;;;;;;119.82;44.17;;;4.40;99.40;;;;;;5110179;28;20526;-62
2021/03/09 06:34:34;;;;;;;152.15;45.97;;;4.40;99.40;;;;;;5109734;28;20136;-61
2021/03/09 06:37:10;;;;;;;146.02;46.05;;;4.50;99.40;;;;;;5110031;28;20062;-61
2021/03/09 06:39:57;;;;;;;133.25;44.20;;;4.50;99.40;;;;;;5110482;28;20673;-63
2021/03/09 06:42:25;;;;;;;123.32;44.45;;;4.50;99.30;;;;;;5110490;28;20043;-62
2021/03/09 06:44:53;;;;;;;168.15;48.50;;;4.50;99.30;;;;;;5109620;28;20466;-60
2021/03/09 06:47:40;;;;;;;130.02;45.03;;;4.50;99.40;;;;;;5110005;28;20110;-60
2021/03/09 06:50:33;;;;;;;162.85;46.70;;;4.60;99.30;;;;;;5110357;28;20557;-59
2021/03/09 06:53:02;;;;;;;139.70;45.53;;;4.60;99.40;;;;;;5107287;28;20476;-60
2021/03/09 06:55:32;;;;;;;124.32;44.05;;;4.60;99.30;;;;;;5110306;28;20044;-65
2021/03/09 06:58:10;;;;;;;124.13;44.70;;;4.70;99.40;;;;;;5110367;28;20107;-62
2021/03/09 07:00:37;;;;;;;133.90;45.33;;;4.70;99.40;;;;;;5110181;27;20046;-61
2021/03/09 07:03:03;;;;;;;149.23;46.72;;;4.80;99.40;;;;;;5108733;28;20086;-60
2021/03/09 07:05:29;;;;;;;152.18;44.60;;;4.80;99.40;;;;;;5109552;28;20078;-59
2021/03/09 07:07:55;;;;;;;161.77;45.83;;;4.80;99.40;;;;;;5109650;28;20454;-59
2021/03/09 07:10:22;;;;;;;139.60;45.80;;;4.90;99.40;;;;;;5112198;28;20043;-65
2021/03/09 07:12:49;;;;;;;123.93;44.33;;;4.90;99.30;;;;;;5109806;28;20054;-60
2021/03/09 07:15:19;;;;;;;158.07;46.75;;;5.00;99.30;;;;;;5109883;28;20071;-61
2021/03/09 07:17:50;;;;;;;199.27;48.40;;;5.00;99.30;;;;;;5109704;27;20043;-60
2021/03/09 07:20:16;;;;;;;172.18;47.00;;;5.10;99.50;;;;;;5109134;28;21201;-60
2021/03/09 07:22:44;;;;;;;189.27;47.17;;;5.00;99.40;;;;;;5108051;28;20116;-60
2021/03/09 07:25:12;;;;;;;198.80;46.42;;;5.10;99.40;;;;;;5107584;28;20039;-60
2021/03/09 07:28:02;;;;;;;221.77;50.10;;;5.10;99.30;;;;;;5123114;27;20116;-60
2021/03/09 07:30:34;;;;;;;235.45;48.28;;;5.20;99.40;;;;;;5107471;28;20074;-60
2021/03/09 07:32:59;;;;;;;145.02;42.17;;;5.20;99.50;;;;;;5108420;28;20047;-60
2021/03/09 07:35:28;;;;;;;131.40;38.17;;;5.20;99.40;;;;;;5107971;28;20063;-61
2021/03/09 07:37:54;;;;;;;115.63;36.80;;;5.30;99.60;;;;;;5107257;28;20035;-60
2021/03/09 07:40:22;;;;;;;121.07;36.90;;;5.30;99.50;;;;;;5107857;27;20157;-61
2021/03/09 07:42:48;;;;;;;105.82;37.25;;;5.40;99.50;;;;;;5108761;28;20392;-67
2021/03/09 07:45:17;;;;;;;122.97;38.30;;;5.40;99.50;;;;;;5109768;28;20048;-62
2021/03/09 07:47:56;;;;;;;99.40;34.33;;;5.50;99.50;;;;;;5115991;27;20529;-61
2021/03/09 07:50:24;;;;;;;100.25;33.85;;;5.60;99.50;;;;;;5129506;27;20070;-61
2021/03/09 07:53:15;;;;;;;83.38;29.40;;;5.60;99.40;;;;;;5129449;27;20089;-60
2021/03/09 07:55:43;;;;;;;81.70;29.67;;;5.60;99.30;;;;;;5130292;27;20070;-59
2021/03/09 07:58:23;;;;;;;85.82;31.48;;;5.60;99.40;;;;;;5129166;27;20121;-59
2021/03/09 08:00:56;;;;;;;89.68;29.55;;;5.60;99.30;;;;;;5129178;27;20062;-60
2021/03/09 08:03:38;;;;;;;82.57;28.42;;;5.70;99.30;;;;;;5130228;27;20082;-61
2021/03/09 08:06:05;;;;;;;78.28;26.67;;;5.80;99.20;;;;;;5128572;27;20095;-60
2021/03/09 08:08:47;;;;;;;68.20;23.20;;;5.90;99.30;;;;;;5129842;27;20092;-60
2021/03/09 08:11:18;;;;;;;52.90;22.48;;;6.00;99.20;;;;;;5129477;27;20132;-61
2021/03/09 08:13:46;;;;;;;51.10;21.63;;;6.10;99.00;;;;;;5129545;27;20050;-61
2021/03/09 08:16:20;;;;;;;43.13;18.58;;;6.30;98.80;;;;;;5129424;27;20054;-61
2021/03/09 08:18:48;;;;;;;42.28;18.27;;;6.40;98.80;;;;;;5129509;27;20047;-61
2021/03/09 08:21:15;;;;;;;44.13;19.52;;;6.50;98.70;;;;;;5129190;27;20065;-61
2021/03/09 08:23:41;;;;;;;40.67;16.90;;;6.50;98.60;;;;;;5129193;27;20413;-61
2021/03/09 08:26:09;;;;;;;34.43;16.33;;;6.60;98.50;;;;;;5129531;28;20051;-61
2021/03/09 08:28:36;;;;;;;37.25;16.42;;;6.60;98.30;;;;;;5128853;27;20439;-61
2021/03/09 08:31:14;;;;;;;33.28;14.38;;;6.80;98.30;;;;;;5129203;27;20054;-62
2021/03/09 08:33:48;;;;;;;27.48;13.02;;;6.80;98.20;;;;;;5133977;27;20478;-60
2021/03/09 08:36:20;;;;;;;31.13;12.10;;;6.70;97.60;;;;;;5133041;27;20051;-61
2021/03/09 08:41:35;;;;;;;23.25;11.15;;;6.80;97.60;;;;;;5133363;27;20047;-61
2021/03/09 08:44:21;;;;;;;22.70;11.52;;;6.70;97.20;;;;;;5133629;27;20035;-61
2021/03/09 08:46:57;;;;;;;26.92;11.98;;;6.70;97.30;;;;;;5133331;27;20062;-60
2021/03/09 08:52:01;;;;;;;25.75;11.82;;;6.80;97.50;;;;;;5133577;27;20061;-60
2021/03/09 08:54:40;;;;;;;25.65;11.98;;;6.80;97.40;;;;;;5133082;27;20040;-60
2021/03/09 08:57:12;;;;;;;29.23;12.75;;;6.80;97.40;;;;;;5131622;27;20087;-61
2021/03/09 08:59:41;;;;;;;26.38;11.68;;;6.80;97.30;;;;;;5133363;27;20087;-61
2021/03/09 09:02:21;;;;;;;29.63;11.80;;;6.80;97.40;;;;;;5133108;27;20077;-61
2021/03/09 09:04:53;;;;;;;25.48;11.65;;;6.90;97.40;;;;;;5132886;27;20054;-61
2021/03/09 09:07:29;;;;;;;23.25;10.75;;;7.00;97.10;;;;;;5112322;28;20044;-62
2021/03/09 09:10:04;;;;;;;20.48;9.98;;;7.00;97.00;;;;;;5112618;28;20118;-62
2021/03/09 09:12:36;;;;;;;19.80;10.25;;;7.00;97.00;;;;;;5112435;28;20135;-61
2021/03/09 09:15:23;;;;;;;25.60;10.80;;;6.90;96.50;;;;;;5112263;28;20176;-61
2021/03/09 09:18:01;;;;;;;22.75;10.50;;;6.90;96.70;;;;;;5111952;28;20276;-61
2021/03/09 09:20:40;;;;;;;19.25;9.18;;;6.90;96.80;;;;;;5111894;28;20122;-62
2021/03/09 09:23:11;;;;;;;17.35;8.80;;;6.80;96.60;;;;;;5111794;28;20071;-60
2021/03/09 09:25:38;;;;;;;18.50;8.63;;;6.80;96.60;;;;;;5112015;28;20054;-60
2021/03/09 09:28:04;;;;;;;16.10;8.02;;;6.90;96.50;;;;;;5110534;28;20494;-60
2021/03/09 09:30:42;;;;;;;14.00;7.28;;;6.80;96.30;;;;;;5112060;28;20048;-61
2021/03/09 09:33:10;;;;;;;14.68;7.00;;;6.80;96.20;;;;;;5111622;28;20047;-60
2021/03/09 09:35:36;;;;;;;13.00;6.70;;;6.80;96.30;;;;;;5109719;28;20517;-61
2021/03/09 09:38:03;;;;;;;12.30;6.43;;;6.80;96.30;;;;;;5111679;28;20092;-61
2021/03/09 09:40:42;;;;;;;14.57;7.53;;;6.80;96.10;;;;;;5109759;28;20309;-61
2021/03/09 09:43:12;;;;;;;17.42;8.70;;;6.80;96.30;;;;;;5110841;28;20070;-62
2021/03/09 09:45:50;;;;;;;19.80;10.20;;;6.80;96.30;;;;;;5111110;28;20044;-60
2021/03/09 09:48:20;;;;;;;19.80;9.63;;;6.90;96.70;;;;;;5111306;28;20047;-61
2021/03/09 09:50:51;;;;;;;25.52;13.77;;;6.60;96.70;;;;;;5110888;28;20370;-60
2021/03/09 09:53:38;;;;;;;26.77;13.52;;;6.60;97.10;;;;;;5111169;28;20082;-62
2021/03/09 09:56:12;;;;;;;25.17;12.45;;;6.50;97.40;;;;;;5111713;28;20054;-61
2021/03/09 09:58:40;;;;;;;27.88;12.88;;;6.50;97.40;;;;;;5110192;28;20043;-61
2021/03/09 10:01:06;;;;;;;34.22;13.80;;;6.50;97.60;;;;;;5113297;28;20040;-61
2021/03/09 10:03:32;;;;;;;34.37;13.53;;;6.50;97.80;;;;;;5116713;28;20050;-61
2021/03/09 10:06:21;;;;;;;37.67;15.33;;;6.50;98.60;;;;;;5113230;28;20055;-61
2021/03/09 10:08:47;;;;;;;47.17;17.50;;;6.50;98.80;;;;;;5110773;28;20071;-61
2021/03/09 10:11:13;;;;;;;46.58;17.70;;;6.50;98.90;;;;;;5110366;28;20044;-60
2021/03/09 10:13:38;;;;;;;46.03;16.73;;;6.60;98.90;;;;;;5110689;28;20043;-61
2021/03/09 10:16:04;;;;;;;49.23;16.67;;;6.60;98.90;;;;;;5110949;27;20486;-61
2021/03/09 10:18:32;;;;;;;49.15;16.73;;;6.70;98.90;;;;;;5110564;28;20138;-61
2021/03/09 10:21:06;;;;;;;59.55;17.70;;;6.70;98.80;;;;;;5109489;27;20039;-61
2021/03/09 10:23:49;;;;;;;57.05;23.90;;;6.70;98.80;;;;;;5110017;28;20055;-61
2021/03/09 10:26:15;;;;;;;53.00;19.20;;;6.70;98.70;;;;;;5111101;28;20062;-61
2021/03/09 10:28:40;;;;;;;76.47;34.20;;;6.50;98.70;;;;;;5110343;28;20122;-61
2021/03/09 10:31:13;;;;;;;69.30;28.00;;;6.50;99.00;;;;;;5110805;28;20118;-60
2021/03/09 10:33:39;;;;;;;62.50;20.77;;;6.50;99.30;;;;;;5110659;28;20063;-61
2021/03/09 10:36:12;;;;;;;41.37;13.90;;;6.50;99.60;;;;;;5110360;27;20051;-61
2021/03/09 10:38:38;;;;;;;46.17;14.98;;;6.40;99.00;;;;;;5110231;28;20117;-61
2021/03/09 10:41:04;;;;;;;51.73;16.23;;;6.40;99.20;;;;;;5110538;28;20039;-61
2021/03/09 10:43:46;;;;;;;70.32;25.95;;;6.40;99.50;;;;;;5110640;28;20062;-60
2021/03/09 10:46:13;;;;;;;57.92;22.38;;;6.50;99.60;;;;;;5110279;28;20063;-60
2021/03/09 10:48:42;;;;;;;38.28;13.98;;;6.50;99.70;;;;;;5110483;28;20051;-60
2021/03/09 10:51:18;;;;;;;44.38;20.70;;;6.50;99.40;;;;;;5109937;28;20052;-60
2021/03/09 10:53:44;;;;;;;56.33;23.33;;;6.20;98.90;;;;;;5110129;27;20112;-59
2021/03/09 10:56:10;;;;;;;56.42;23.80;;;6.10;99.10;;;;;;5109724;28;20047;-60
2021/03/09 10:58:36;;;;;;;58.47;25.73;;;6.10;99.30;;;;;;5110207;28;20048;-60
2021/03/09 11:01:02;;;;;;;48.93;23.50;;;6.20;99.60;;;;;;5110384;28;20043;-60
2021/03/09 11:03:28;;;;;;;44.47;21.70;;;6.30;99.60;;;;;;5110269;28;20052;-60
2021/03/09 11:05:58;;;;;;;48.65;23.33;;;6.30;99.30;;;;;;5109843;28;20048;-61
2021/03/09 11:08:23;;;;;;;52.73;23.53;;;6.30;99.40;;;;;;5108114;28;20047;-60
2021/03/09 11:10:53;;;;;;;45.53;22.13;;;6.30;99.40;;;;;;5109469;28;20047;-60
2021/03/09 11:13:20;;;;;;;44.50;22.58;;;6.40;99.40;;;;;;5108858;28;20047;-60
2021/03/09 11:15:48;;;;;;;43.72;23.58;;;6.30;99.30;;;;;;5109864;28;20090;-60
2021/03/09 11:18:14;;;;;;;54.25;25.05;;;6.30;98.90;;;;;;5109879;28;20040;-60
2021/03/09 11:20:41;;;;;;;46.93;23.70;;;6.30;99.30;;;;;;5109227;28;20048;-60
2021/03/09 11:23:07;;;;;;;51.78;24.70;;;6.30;99.30;;;;;;5109145;28;20051;-60
2021/03/09 11:25:35;;;;;;;51.63;25.03;;;6.30;99.30;;;;;;5109138;28;20364;-60
2021/03/09 11:28:01;;;;;;;58.53;26.27;;;6.40;99.20;;;;;;5109115;28;20051;-59
2021/03/09 11:30:27;;;;;;;63.63;28.15;;;6.40;99.40;;;;;;5108975;28;20123;-61
2021/03/09 11:32:53;;;;;;;51.70;27.13;;;6.40;99.30;;;;;;5109249;28;20545;-60
2021/03/09 11:35:19;;;;;;;56.73;25.83;;;6.30;99.10;;;;;;5108944;28;20043;-59
2021/03/09 11:37:44;;;;;;;60.03;27.90;;;6.20;99.10;;;;;;5108960;28;20048;-59
2021/03/09 11:40:11;;;;;;;66.77;29.97;;;6.20;99.30;;;;;;5108362;28;20351;-59
2021/03/09 11:42:36;;;;;;;67.88;31.92;;;6.10;99.20;;;;;;5109013;28;20067;-60
2021/03/09 11:45:04;;;;;;;76.87;33.17;;;6.10;99.50;;;;;;5108769;28;20043;-59
2021/03/09 11:47:30;;;;;;;74.53;33.50;;;6.20;99.60;;;;;;5108915;28;20473;-59
2021/03/09 11:49:55;;;;;;;69.27;32.77;;;6.20;99.60;;;;;;5108667;28;20047;-60
2021/03/09 11:52:21;;;;;;;56.83;28.43;;;6.30;99.80;;;;;;5108691;28;20043;-60
2021/03/09 11:54:47;;;;;;;58.23;30.23;;;6.30;99.50;;;;;;5108936;28;20062;-59
2021/03/09 11:57:13;;;;;;;65.73;30.20;;;6.20;99.40;;;;;;5109738;28;20077;-60
2021/03/09 11:59:38;;;;;;;50.30;26.93;;;6.30;99.40;;;;;;5110119;28;20044;-60
2021/03/09 12:02:04;;;;;;;52.17;27.43;;;6.40;99.40;;;;;;5109725;28;20084;-59
2021/03/09 12:04:30;;;;;;;51.73;27.03;;;6.40;99.50;;;;;;5110154;28;20177;-60
2021/03/09 12:06:55;;;;;;;50.23;27.77;;;6.40;99.70;;;;;;5109736;28;20055;-60
2021/03/09 12:09:21;;;;;;;47.07;24.80;;;6.30;99.60;;;;;;5109898;28;20052;-60
2021/03/09 12:11:47;;;;;;;47.57;25.37;;;6.30;99.60;;;;;;5109685;28;20040;-61
2021/03/09 12:14:12;;;;;;;58.47;28.50;;;6.10;99.50;;;;;;5110491;28;20088;-65
2021/03/09 12:16:38;;;;;;;50.97;26.47;;;6.10;99.60;;;;;;5117486;28;20055;-60
2021/03/09 12:19:04;;;;;;;57.67;27.80;;;6.10;99.70;;;;;;5109271;28;20055;-59
2021/03/09 12:21:30;;;;;;;57.07;28.30;;;6.00;99.60;;;;;;5108675;28;20185;-60
2021/03/09 12:23:55;;;;;;;61.23;30.27;;;6.00;99.70;;;;;;5108967;28;20374;-60
2021/03/09 12:26:21;;;;;;;65.53;31.50;;;6.00;99.50;;;;;;5108591;28;20044;-61
2021/03/09 12:28:46;;;;;;;79.60;35.50;;;5.90;99.60;;;;;;5109340;28;20085;-60
2021/03/09 12:31:12;;;;;;;87.87;35.63;;;6.00;99.70;;;;;;5108495;28;20068;-60
2021/03/09 12:33:38;;;;;;;79.17;34.93;;;6.10;99.90;;;;;;5108568;28;20147;-60
2021/03/09 12:36:04;;;;;;;79.13;34.90;;;6.10;99.70;;;;;;5108627;28;20048;-60
2021/03/09 12:38:29;;;;;;;79.03;34.88;;;6.00;99.60;;;;;;5108457;28;20120;-60
2021/03/09 12:40:56;;;;;;;83.67;36.30;;;6.00;99.60;;;;;;5108277;28;20486;-60
2021/03/09 12:43:22;;;;;;;69.22;34.10;;;6.00;99.40;;;;;;5108295;28;20050;-60
2021/03/09 12:45:48;;;;;;;85.97;36.83;;;6.00;99.30;;;;;;5108165;28;20044;-61
2021/03/09 12:48:14;;;;;;;81.32;35.92;;;5.90;99.30;;;;;;5108555;28;20151;-59
2021/03/09 12:50:40;;;;;;;76.83;34.70;;;6.00;99.40;;;;;;5108267;28;20108;-60